Time;durP1;ratioP1;P1;durP2;ratioP2;P2;SDS_P1;SDS_P2;PMS_P1;PMS_P2;Temp;Humidity;BMP_temperature;BMP_pressure;BME280_temperature;BME280_humidity;BME280_pressure;Samples;Min_cycle;Max_cycle;Signal;HPM_P1;HPM_P2
2022/05/09 00:00:31;;;;;;;10.50;7.30;;;;;;;-145.69;100.00;72377.53;5074283;28;20676;-75
2022/05/09 00:02:58;;;;;;;15.23;7.30;;;;;;;-145.69;100.00;72381.53;5074986;28;20530;-75
2022/05/09 00:05:28;;;;;;;11.80;8.15;;;;;;;-145.69;100.00;72369.59;5073379;28;20437;-75
2022/05/09 00:07:55;;;;;;;15.63;7.83;;;;;;;-145.69;100.00;72351.66;5074711;28;20202;-75
2022/05/09 00:10:23;;;;;;;11.67;7.33;;;;;;;-145.69;100.00;72363.63;5074547;28;20225;-75
2022/05/09 00:12:52;;;;;;;10.90;7.73;;;;;;;-145.69;100.00;72365.59;5073885;28;20688;-75
2022/05/09 00:15:19;;;;;;;10.47;7.03;;;;;;;-145.69;100.00;72365.59;5074696;28;20203;-75
2022/05/09 00:17:46;;;;;;;13.67;7.97;;;;;;;-145.69;100.00;72375.56;5074446;28;20222;-75
2022/05/09 00:20:14;;;;;;;10.13;6.80;;;;;;;-145.69;100.00;72377.53;5074539;28;20615;-75
2022/05/09 00:22:51;;;;;;;11.70;7.23;;;;;;;-145.69;100.00;72381.53;5074353;28;20572;-75
2022/05/09 00:25:25;;;;;;;10.67;7.00;;;;;;;-145.69;100.00;72385.50;5074272;28;20222;-75
2022/05/09 00:27:52;;;;;;;9.73;7.13;;;;;;;-145.69;100.00;72375.56;5074185;28;20273;-75
2022/05/09 00:30:22;;;;;;;12.17;8.17;;;;;;;-145.69;100.00;72365.59;5073754;28;20195;-75
2022/05/09 00:32:49;;;;;;;12.23;8.23;;;;;;;-145.69;100.00;72353.66;5069315;28;20729;-75
2022/05/09 00:35:15;;;;;;;16.77;7.80;;;;;;;-145.69;100.00;72353.66;5073942;28;20640;-75
2022/05/09 00:37:42;;;;;;;13.70;8.33;;;;;;;-145.69;100.00;72357.66;5074045;28;20234;-75
2022/05/09 00:40:16;;;;;;;13.27;8.37;;;;;;;-145.69;100.00;72341.72;5073516;28;20210;-75
2022/05/09 00:42:45;;;;;;;12.93;8.53;;;;;;;-145.69;100.00;72353.66;5072857;28;20207;-75
2022/05/09 00:45:13;;;;;;;12.80;8.00;;;;;;;-145.69;100.00;72361.63;5073667;28;20191;-75
2022/05/09 00:47:47;;;;;;;13.90;7.77;;;;;;;-145.69;100.00;72371.56;5073587;28;20286;-75
2022/05/09 00:50:19;;;;;;;11.70;7.67;;;;;;;-145.69;100.00;72377.53;5073028;28;20227;-75
2022/05/09 00:52:49;;;;;;;15.97;8.07;;;;;;;-145.69;100.00;72379.53;5073578;28;20204;-75
2022/05/09 00:55:22;;;;;;;10.37;7.43;;;;;;;-145.69;100.00;72393.47;5073737;28;20221;-75
2022/05/09 00:57:53;;;;;;;14.17;7.77;;;;;;;-145.69;100.00;72399.44;5073769;28;20227;-75
2022/05/09 01:00:22;;;;;;;14.30;8.53;;;;;;;-145.69;100.00;72407.41;5073143;28;20199;-75
2022/05/09 01:03:07;;;;;;;10.97;7.93;;;;;;;-145.69;100.00;72425.31;5073364;28;20202;-76
2022/05/09 01:05:33;;;;;;;11.90;7.50;;;;;;;-145.69;100.00;72447.22;5073754;28;20206;-75
2022/05/09 01:08:00;;;;;;;14.60;9.30;;;;;;;-145.69;100.00;72441.25;5073446;28;20471;-75
2022/05/09 01:10:34;;;;;;;13.53;8.90;;;;;;;-145.69;100.00;72441.25;5072989;28;20656;-75
2022/05/09 01:13:01;;;;;;;11.97;8.43;;;;;;;-145.69;100.00;72465.13;5073483;28;20203;-74
2022/05/09 01:15:29;;;;;;;12.77;8.17;;;;;;;-145.69;100.00;72465.13;5072363;28;20198;-74
2022/05/09 01:17:56;;;;;;;18.20;8.50;;;;;;;-145.69;100.00;72479.06;5073126;28;20246;-75
2022/05/09 01:20:22;;;;;;;13.73;8.10;;;;;;;-145.69;100.00;72489.00;5073409;28;20252;-75
2022/05/09 01:22:50;;;;;;;14.77;8.60;;;;;;;-145.69;100.00;72477.06;5073312;28;20205;-75
2022/05/09 01:25:21;;;;;;;16.23;9.47;;;;;;;-145.69;100.00;72479.06;5073319;28;20206;-75
2022/05/09 01:27:49;;;;;;;14.73;9.23;;;;;;;-145.69;100.00;72473.09;5073327;28;20207;-75
2022/05/09 01:30:20;;;;;;;17.40;9.43;;;;;;;-145.69;100.00;72502.94;5073336;28;20203;-75
2022/05/09 01:32:56;;;;;;;14.80;9.70;;;;;;;-145.69;100.00;72489.00;5072892;28;20198;-75
2022/05/09 01:35:28;;;;;;;16.83;9.80;;;;;;;-145.69;100.00;72496.97;5073051;28;20198;-75
2022/05/09 01:38:05;;;;;;;13.43;8.30;;;;;;;-145.69;100.00;72518.88;5072767;28;20296;-75
2022/05/09 01:40:32;;;;;;;12.40;7.97;;;;;;;-145.69;100.00;72532.78;5071613;28;20679;-75
2022/05/09 01:42:58;;;;;;;16.57;9.03;;;;;;;-145.69;100.00;72532.78;5072759;28;20205;-75
2022/05/09 01:45:24;;;;;;;15.63;10.00;;;;;;;-145.69;100.00;72536.78;5072893;28;20585;-75
2022/05/09 01:50:35;;;;;;;18.27;10.57;;;;;;;-145.69;100.00;72516.88;5072685;28;20593;-75
2022/05/09 01:53:05;;;;;;;16.07;9.53;;;;;;;-145.69;100.00;72510.91;5072431;28;20222;-75
2022/05/09 01:55:32;;;;;;;20.20;10.80;;;;;;;-145.69;100.00;72510.91;5073037;28;20604;-75
2022/05/09 01:57:58;;;;;;;16.47;9.90;;;;;;;-145.69;100.00;72493.00;5072974;28;20234;-75
2022/05/09 02:00:25;;;;;;;16.47;9.50;;;;;;;-145.69;100.00;72500.94;5072908;28;20202;-74
2022/05/09 02:02:52;;;;;;;14.53;9.83;;;;;;;-145.69;100.00;72516.88;5072608;28;20286;-75
2022/05/09 02:05:18;;;;;;;17.20;9.43;;;;;;;-145.69;100.00;72526.81;5071696;28;20194;-75
2022/05/09 02:07:46;;;;;;;17.83;10.03;;;;;;;-145.69;100.00;72512.91;5072616;28;20195;-75
2022/05/09 02:10:16;;;;;;;12.77;8.03;;;;;;;-145.69;100.00;72544.75;5072537;28;20749;-75
2022/05/09 02:12:43;;;;;;;19.20;10.50;;;;;;;-145.69;100.00;72544.75;5072563;28;20612;-75
2022/05/09 02:15:10;;;;;;;15.90;9.93;;;;;;;-145.69;100.00;72560.66;5072623;28;20586;-75
2022/05/09 02:17:37;;;;;;;22.43;10.57;;;;;;;-145.69;100.00;72554.69;5072195;28;20203;-75
2022/05/09 02:20:05;;;;;;;14.73;8.93;;;;;;;-145.69;100.00;72568.63;5072290;28;20252;-74
2022/05/09 02:22:33;;;;;;;14.07;8.87;;;;;;;-145.69;100.00;72584.56;5072616;28;20199;-74
2022/05/09 02:25:00;;;;;;;17.13;10.40;;;;;;;-145.69;100.00;72582.56;5072588;28;20290;-74
2022/05/09 02:27:32;;;;;;;23.57;12.33;;;;;;;-145.69;100.00;72560.66;5072526;28;20714;-75
2022/05/09 02:30:01;;;;;;;20.03;11.50;;;;;;;-145.69;100.00;72566.63;5072410;28;20199;-74
2022/05/09 02:32:29;;;;;;;23.63;11.80;;;;;;;-145.69;100.00;72552.69;5067747;28;20199;-75
2022/05/09 02:34:55;;;;;;;23.80;13.13;;;;;;;-145.69;100.00;72534.78;5052183;28;20257;-75
2022/05/09 02:37:22;;;;;;;24.03;12.67;;;;;;;-145.69;100.00;72528.81;5067543;28;20194;-75
2022/05/09 02:39:48;;;;;;;25.50;11.50;;;;;;;-145.69;100.00;72534.78;5072020;28;20223;-75
2022/05/09 02:42:15;;;;;;;22.57;10.80;;;;;;;-145.69;100.00;72548.72;5072376;28;20203;-75
2022/05/09 02:44:42;;;;;;;19.57;10.33;;;;;;;-145.69;100.00;72560.66;5072066;28;20612;-75
2022/05/09 02:47:09;;;;;;;22.53;10.67;;;;;;;-145.69;100.00;72558.66;5071838;28;20202;-75
2022/05/09 02:49:36;;;;;;;18.57;10.63;;;;;;;-145.69;100.00;72580.56;5071710;28;20623;-75
2022/05/09 02:52:04;;;;;;;18.73;10.27;;;;;;;-145.69;100.00;72598.47;5071900;28;20187;-75
2022/05/09 02:54:31;;;;;;;18.57;10.80;;;;;;;-145.69;100.00;72608.44;5072509;28;20206;-75
2022/05/09 02:56:58;;;;;;;21.57;11.73;;;;;;;-145.69;100.00;72598.47;5071682;28;20199;-75
2022/05/09 02:59:24;;;;;;;19.27;11.03;;;;;;;-145.69;100.00;72610.44;5072133;28;20696;-75
2022/05/09 03:01:52;;;;;;;19.97;11.70;;;;;;;-145.69;100.00;72614.41;5072234;28;20661;-75
2022/05/09 03:07:21;;;;;;;29.20;15.37;;;;;;;-145.69;100.00;72584.56;5072550;28;20206;-75
2022/05/09 03:09:51;;;;;;;24.67;13.40;;;;;;;-145.69;100.00;72586.53;5075746;28;20564;-75
2022/05/09 03:12:19;;;;;;;21.17;12.30;;;;;;;-145.69;100.00;72608.44;5075860;28;20293;-75
2022/05/09 03:14:46;;;;;;;26.37;13.00;;;;;;;-145.69;100.00;72596.50;5075662;28;20202;-75
2022/05/09 03:17:15;;;;;;;22.93;12.20;;;;;;;-145.69;100.00;72610.44;5075393;28;20565;-75
2022/05/09 03:19:42;;;;;;;21.67;11.50;;;;;;;-145.69;100.00;72628.34;5075409;28;20230;-75
2022/05/09 03:22:10;;;;;;;29.57;13.50;;;;;;;-145.69;100.00;72586.53;5075110;28;20199;-75
2022/05/09 03:24:37;;;;;;;26.77;14.57;;;;;;;-145.69;100.00;72578.56;5075721;28;20202;-75
2022/05/09 03:27:06;;;;;;;23.73;11.67;;;;;;;-145.69;100.00;72592.50;5075667;28;20206;-75
2022/05/09 03:29:33;;;;;;;28.17;13.77;;;;;;;-145.69;100.00;72564.66;5075248;28;20675;-75
2022/05/09 03:32:00;;;;;;;31.47;15.83;;;;;;;-145.69;100.00;72556.69;5075213;28;20293;-75
2022/05/09 03:34:30;;;;;;;31.23;14.90;;;;;;;-145.69;100.00;72566.63;5075233;28;20232;-74
2022/05/09 03:36:58;;;;;;;27.87;14.43;;;;;;;-145.69;100.00;72582.56;5074999;28;20236;-75
2022/05/09 03:39:24;;;;;;;25.97;13.53;;;;;;;-145.69;100.00;72600.47;5074941;28;20261;-75
2022/05/09 03:41:51;;;;;;;28.50;13.63;;;;;;;-145.69;100.00;72608.44;5075299;28;20207;-75
2022/05/09 03:44:20;;;;;;;23.47;13.10;;;;;;;-145.69;100.00;72616.41;5075034;28;20298;-75
2022/05/09 03:46:47;;;;;;;25.20;13.70;;;;;;;-145.69;100.00;72628.34;5075137;28;20696;-75
2022/05/09 03:49:14;;;;;;;29.80;14.43;;;;;;;-145.69;100.00;72626.34;5074724;28;20249;-75
2022/05/09 03:51:41;;;;;;;28.40;14.90;;;;;;;-145.69;100.00;72634.31;5074502;28;20226;-75
2022/05/09 03:54:08;;;;;;;24.10;13.30;;;;;;;-145.69;100.00;72642.28;5074932;28;20661;-74
2022/05/09 03:56:34;;;;;;;21.73;12.43;;;;;;;-145.69;100.00;72644.25;5074970;28;20199;-74
2022/05/09 03:59:02;;;;;;;23.87;13.20;;;;;;;-145.69;100.00;72640.28;5074741;28;20219;-74
2022/05/09 04:01:28;;;;;;;36.10;16.87;;;;;;;-145.69;100.00;72594.50;5074704;28;20723;-74
2022/05/09 04:03:55;;;;;;;30.53;15.27;;;;;;;-145.69;100.00;72600.47;5074334;28;20199;-74
2022/05/09 04:06:24;;;;;;;38.10;17.37;;;;;;;-145.69;100.00;72596.50;5074881;28;20248;-75
2022/05/09 04:08:55;;;;;;;32.37;15.87;;;;;;;-145.69;100.00;72608.44;5074759;28;20203;-75
2022/05/09 04:11:21;;;;;;;33.77;14.77;;;;;;;-145.69;100.00;72584.56;5074738;28;20297;-75
2022/05/09 04:13:50;;;;;;;29.80;14.97;;;;;;;-145.69;100.00;72588.53;5074164;28;20657;-75
2022/05/09 04:19:01;;;;;;;35.37;16.67;;;;;;;-145.69;100.00;72576.59;5074147;28;20229;-75
2022/05/09 04:21:28;;;;;;;38.27;17.50;;;;;;;-145.69;100.00;72568.63;5074583;28;20199;-75
2022/05/09 04:23:58;;;;;;;35.60;18.80;;;;;;;-145.69;100.00;72580.56;5074058;28;20434;-74
2022/05/09 04:26:25;;;;;;;30.17;15.10;;;;;;;-145.69;100.00;72588.53;5074249;28;20293;-75
2022/05/09 04:28:53;;;;;;;31.20;14.77;;;;;;;-145.69;100.00;72588.53;5074126;28;20535;-75
2022/05/09 04:31:24;;;;;;;41.60;18.03;;;;;;;-145.69;100.00;72548.72;5074265;28;20233;-75
2022/05/09 04:33:55;;;;;;;29.83;15.43;;;;;;;-145.69;100.00;72538.78;5073870;28;20545;-75
2022/05/09 04:36:22;;;;;;;29.87;15.90;;;;;;;-145.69;100.00;72538.78;5074236;28;20226;-75
2022/05/09 04:38:52;;;;;;;26.57;13.73;;;;;;;-145.69;100.00;72548.72;5058101;28;20234;-75
2022/05/09 04:41:22;;;;;;;27.00;13.77;;;;;;;-145.69;100.00;72548.72;5054023;28;20294;-75
2022/05/09 04:43:53;;;;;;;24.90;14.17;;;;;;;-145.69;100.00;72554.69;5054079;28;20246;-75
2022/05/09 04:46:20;;;;;;;28.37;15.00;;;;;;;-145.69;100.00;72544.75;5060316;28;20588;-75
2022/05/09 04:48:46;;;;;;;34.70;16.27;;;;;;;-145.69;100.00;72554.69;5073781;28;20241;-75
2022/05/09 04:51:15;;;;;;;26.83;14.37;;;;;;;-145.69;100.00;72544.75;5073750;28;20214;-75
2022/05/09 04:53:41;;;;;;;32.43;17.57;;;;;;;-145.69;100.00;72520.84;5073450;28;20232;-75
2022/05/09 04:56:08;;;;;;;45.47;22.63;;;;;;;-145.69;100.00;72504.94;5073715;28;20248;-75
2022/05/09 04:58:41;;;;;;;49.57;21.27;;;;;;;-145.69;100.00;72494.97;5073690;28;20203;-75
2022/05/09 05:01:12;;;;;;;47.03;21.87;;;;;;;-145.69;100.00;72485.03;5073458;28;20285;-75
2022/05/09 05:03:46;;;;;;;40.30;19.93;;;;;;;-145.69;100.00;72491.00;5073543;28;20238;-75
2022/05/09 05:06:13;;;;;;;35.27;17.77;;;;;;;-145.69;100.00;72498.97;5073515;28;20220;-75
2022/05/09 05:08:39;;;;;;;36.27;17.90;;;;;;;-145.69;100.00;72493.00;5073399;28;20202;-75
2022/05/09 05:11:06;;;;;;;30.63;16.97;;;;;;;-145.69;100.00;72477.06;5073492;28;20252;-75
2022/05/09 05:13:33;;;;;;;35.43;17.90;;;;;;;-145.69;100.00;72473.09;5073372;28;20252;-75
2022/05/09 05:16:02;;;;;;;38.63;22.90;;;;;;;-145.69;100.00;72459.16;5052407;28;20431;-75
2022/05/09 05:18:30;;;;;;;33.53;17.83;;;;;;;-145.69;100.00;72447.22;5053473;28;20196;-75
2022/05/09 05:20:57;;;;;;;36.70;18.53;;;;;;;-145.69;100.00;72433.28;5053115;28;20654;-75
2022/05/09 05:23:23;;;;;;;36.50;17.90;;;;;;;-145.69;100.00;72417.34;5053463;28;20207;-75
2022/05/09 05:25:55;;;;;;;36.20;18.33;;;;;;;-145.69;100.00;72405.41;5053422;28;20249;-75
2022/05/09 05:28:22;;;;;;;29.57;15.50;;;;;;;-145.69;100.00;72403.41;5060515;28;20301;-75
2022/05/09 05:30:51;;;;;;;29.87;15.47;;;;;;;-145.69;100.00;72389.50;5072953;28;20198;-75
2022/05/09 05:33:20;;;;;;;30.30;16.33;;;;;;;-145.69;100.00;72373.56;5072960;28;20677;-75
2022/05/09 05:35:47;;;;;;;36.13;17.70;;;;;;;-145.69;100.00;72367.59;5073268;28;20202;-75
2022/05/09 05:38:16;;;;;;;31.83;16.90;;;;;;;-145.69;100.00;72353.66;5073147;28;20293;-75
2022/05/09 05:40:42;;;;;;;27.03;15.40;;;;;;;-145.69;100.00;72337.75;5072740;28;20237;-76
2022/05/09 05:43:09;;;;;;;30.63;16.47;;;;;;;-145.69;100.00;72317.84;5072745;28;20194;-76
2022/05/09 05:45:37;;;;;;;30.67;17.30;;;;;;;-145.69;100.00;72309.88;5073010;28;20210;-75
2022/05/09 05:48:03;;;;;;;34.20;17.37;;;;;;;-145.69;100.00;72297.94;5072678;28;20676;-75
2022/05/09 05:50:32;;;;;;;27.60;16.40;;;;;;;-145.69;100.00;72272.06;5072304;28;20283;-75
2022/05/09 05:52:59;;;;;;;26.60;14.93;;;;;;;-145.69;100.00;72272.06;5073054;28;20252;-75
2022/05/09 05:55:25;;;;;;;31.43;13.97;;;;;;;-145.69;100.00;72264.09;5072629;28;20607;-75
2022/05/09 05:57:51;;;;;;;21.17;12.73;;;;;;;-145.69;100.00;72238.22;5072878;28;20206;-75
2022/05/09 06:00:21;;;;;;;20.83;12.00;;;;;;;-145.69;100.00;72230.25;5072599;28;20233;-75
2022/05/09 06:02:48;;;;;;;19.07;12.17;;;;;;;-145.69;100.00;72230.25;5072724;28;20203;-75
2022/05/09 06:05:18;;;;;;;18.33;11.67;;;;;;;-145.69;100.00;72220.31;5072553;28;20530;-75
2022/05/09 06:07:48;;;;;;;19.23;11.97;;;;;;;-145.69;100.00;72200.41;5072839;28;20221;-75
2022/05/09 06:10:16;;;;;;;16.43;11.63;;;;;;;-145.69;100.00;72182.50;5072437;28;20195;-75
2022/05/09 06:12:45;;;;;;;21.40;11.87;;;;;;;-145.69;100.00;72170.56;5072784;28;20199;-75
2022/05/09 06:15:32;;;;;;;16.93;10.70;;;;;;;-145.69;100.00;72150.66;5072541;28;20864;-75
2022/05/09 06:18:01;;;;;;;18.20;11.23;;;;;;;-145.69;100.00;72090.94;5072763;28;20203;-75
2022/05/09 06:20:28;;;;;;;17.17;10.00;;;;;;;-145.69;100.00;72059.09;5072382;28;20223;-75
2022/05/09 06:22:59;;;;;;;13.25;9.00;;;;;;;-145.69;100.00;71993.44;5072622;28;20202;-76
2022/05/09 06:25:27;;;;;;;14.73;9.48;;;;;;;-145.69;100.00;71981.50;5072227;28;20221;-75
2022/05/09 06:27:54;;;;;;;11.75;8.45;;;;;;;-145.69;100.00;71979.50;5072760;28;20203;-76
2022/05/09 06:30:27;;;;;;;11.88;7.90;;;;;;;-145.69;100.00;71915.81;5072553;28;20261;-76
2022/05/09 06:32:57;;;;;;;11.50;7.05;;;;;;;-145.69;100.00;71872.03;5072749;28;20202;-76
2022/05/09 06:35:26;;;;;;;8.77;7.00;;;;;;;-145.69;100.00;71850.13;5072431;28;20612;-75
2022/05/09 06:37:58;;;;;;;10.40;7.13;;;;;;;-145.69;100.00;71820.28;5072255;28;20282;-75
2022/05/09 06:40:24;;;;;;;11.25;6.45;;;;;;;-145.69;100.00;71804.38;5074574;28;20237;-75
2022/05/09 06:42:54;;;;;;;7.80;6.03;;;;;;;-145.69;100.00;71804.38;5076486;28;20194;-76
2022/05/09 06:45:21;;;;;;;11.27;6.57;;;;;;;-145.69;100.00;71828.25;5076297;28;20202;-75
2022/05/09 06:47:49;;;;;;;10.48;6.72;;;;;;;-145.69;100.00;71810.34;5075626;28;20252;-75
2022/05/09 06:50:17;;;;;;;10.55;6.30;;;;;;;-145.69;100.00;71830.25;5075971;28;20288;-76
2022/05/09 06:52:43;;;;;;;10.23;6.80;;;;;;;-145.69;100.00;71828.25;5075699;28;20211;-75
2022/05/09 06:55:15;;;;;;;9.85;6.90;;;;;;;-145.69;100.00;71820.28;5076005;28;20719;-76
2022/05/09 06:57:44;;;;;;;14.35;7.65;;;;;;;-145.69;100.00;71846.16;5076126;28;20557;-75
2022/05/09 07:00:14;;;;;;;13.68;8.13;;;;;;;-145.69;100.00;71816.31;5075379;28;20252;-75
2022/05/09 07:02:41;;;;;;;14.65;6.72;;;;;;;-145.69;100.00;71762.56;5075913;28;20210;-75
2022/05/09 07:05:09;;;;;;;11.88;6.18;;;;;;;-145.69;100.00;71726.75;5075625;28;20198;-75
2022/05/09 07:07:36;;;;;;;10.25;5.63;;;;;;;-145.69;100.00;71700.88;5077487;28;20715;-75
2022/05/09 07:10:03;;;;;;;10.00;6.72;;;;;;;-145.69;100.00;71700.88;5075705;28;20252;-75
2022/05/09 07:12:31;;;;;;;12.68;5.95;;;;;;;-145.69;98.93;71682.97;5075377;28;20592;-76
2022/05/09 07:14:58;;;;;;;12.63;6.68;;;;;;;-145.69;100.00;71673.03;5075400;28;20213;-76
2022/05/09 07:17:24;;;;;;;11.00;6.82;;;;;;;-145.69;100.00;71645.16;5075789;28;20202;-76
2022/05/09 07:19:51;;;;;;;10.50;6.53;;;;;;;-145.69;97.72;71639.19;5075414;28;20234;-76
2022/05/09 07:22:17;;;;;;;10.23;6.60;;;;;;;-145.69;99.70;71619.28;5075706;28;20257;-75
2022/05/09 07:24:49;;;;;;;10.32;6.75;;;;;;;-145.69;98.16;71637.19;5075507;28;20664;-76
2022/05/09 07:27:17;;;;;;;10.77;5.88;;;;;;;-145.69;96.18;71609.34;5075317;28;20195;-76
2022/05/09 07:29:47;;;;;;;7.75;5.30;;;;;;;-145.69;95.27;71583.47;5075278;28;20194;-75
2022/05/09 07:32:16;;;;;;;14.10;5.75;;;;;;;-145.69;91.52;71593.44;5075264;28;20791;-75
2022/05/09 07:34:43;;;;;;;8.15;5.88;;;;;;;-145.69;92.08;71585.47;5075438;28;20206;-76
2022/05/09 07:37:09;;;;;;;6.78;5.28;;;;;;;-145.69;92.16;71561.59;5075458;28;20199;-75
2022/05/09 07:39:36;;;;;;;8.25;5.38;;;;;;;-145.69;93.61;71565.56;5074701;28;20692;-76
2022/05/09 07:42:06;;;;;;;8.20;5.22;;;;;;;-145.69;91.64;71555.63;5074167;28;20195;-75
2022/05/09 07:44:33;;;;;;;9.45;5.60;;;;;;;-145.69;90.65;71545.66;5075150;28;20294;-75
2022/05/09 07:47:04;;;;;;;6.07;5.13;;;;;;;-145.69;89.16;71513.81;5075286;28;20252;-76
2022/05/09 07:49:30;;;;;;;8.35;5.20;;;;;;;-145.69;90.67;71529.75;5075102;28;20234;-75
2022/05/09 07:51:57;;;;;;;10.63;5.80;;;;;;;-145.69;90.13;71565.56;5074848;28;20203;-76
2022/05/09 07:54:23;;;;;;;6.60;4.68;;;;;;;-145.69;93.02;71581.50;5074917;28;20195;-76
2022/05/09 07:56:50;;;;;;;10.45;5.07;;;;;;;-145.69;90.69;71527.75;5074913;28;20195;-76
2022/05/09 07:59:17;;;;;;;8.02;5.03;;;;;;;-145.69;86.72;71460.09;5074931;28;20252;-76
2022/05/09 08:01:44;;;;;;;8.15;4.40;;;;;;;-145.69;84.78;71487.97;5071595;28;20250;-76
2022/05/09 08:04:11;;;;;;;8.20;4.50;;;;;;;-145.69;84.67;71476.03;5072636;28;20672;-76
2022/05/09 08:06:45;;;;;;;7.10;4.60;;;;;;;-145.69;87.28;71426.28;5069647;28;20195;-76
2022/05/09 08:09:15;;;;;;;6.90;4.50;;;;;;;-145.69;83.07;71394.44;5074605;28;20206;-76
2022/05/09 08:11:41;;;;;;;6.70;4.38;;;;;;;-145.69;81.64;71406.38;5074230;28;20202;-76
2022/05/09 08:14:08;;;;;;;6.30;4.30;;;;;;;-145.69;82.33;71380.50;5074060;28;20199;-76
2022/05/09 08:16:35;;;;;;;4.70;3.55;;;;;;;-145.69;80.54;71394.44;5074584;28;20195;-75
2022/05/09 08:19:02;;;;;;;6.53;4.25;;;;;;;-145.69;81.61;71372.53;5072971;28;20199;-75
2022/05/09 08:21:31;;;;;;;8.20;3.92;;;;;;;-145.69;78.91;71336.72;5073550;28;20222;-75
2022/05/09 08:24:06;;;;;;;4.82;3.70;;;;;;;-145.69;81.33;71342.69;5074257;28;20290;-75
2022/05/09 08:26:33;;;;;;;5.13;3.90;;;;;;;-145.69;80.54;71338.72;5074366;28;20195;-76
2022/05/09 08:29:02;;;;;;;5.55;3.75;;;;;;;-145.69;76.92;71298.94;5074235;28;20618;-75
2022/05/09 08:31:29;;;;;;;4.95;3.78;;;;;;;-145.69;76.04;71269.06;5074269;28;20560;-75
2022/05/09 08:33:56;;;;;;;4.97;3.78;;;;;;;-145.69;73.45;71306.88;5073716;28;20620;-76
2022/05/09 08:39:09;;;;;;;8.13;3.80;;;;;;;-145.69;72.96;71334.75;5074074;28;20248;-76
2022/05/09 08:41:44;;;;;;;6.13;3.80;;;;;;;-145.69;72.72;71310.84;5072287;28;20227;-76
2022/05/09 08:44:20;;;;;;;4.80;3.10;;;;;;;-145.69;72.56;71350.66;5054008;28;20600;-76
2022/05/09 08:47:00;;;;;;;7.78;4.03;;;;;;;-145.69;72.36;71372.53;5058018;28;20194;-76
2022/05/09 08:49:37;;;;;;;5.93;3.70;;;;;;;-145.69;74.68;71398.41;5073618;28;20226;-76
2022/05/09 08:52:14;;;;;;;7.45;3.60;;;;;;;-145.69;75.06;71408.38;5069785;28;20206;-76
2022/05/09 08:54:43;;;;;;;5.40;3.60;;;;;;;-145.69;72.88;71366.56;5053908;28;20325;-75
2022/05/09 08:57:14;;;;;;;6.35;3.75;;;;;;;-145.69;73.20;71374.53;5053854;28;20199;-78
2022/05/09 08:59:48;;;;;;;5.32;3.72;;;;;;;-145.69;72.18;71350.66;5053492;28;20203;-76
2022/05/09 09:02:19;;;;;;;4.05;3.30;;;;;;;-145.69;72.45;71372.53;5069921;28;20199;-76
2022/05/09 09:04:56;;;;;;;6.20;3.53;;;;;;;-145.69;75.16;71350.66;5073760;28;20272;-76
2022/05/09 09:07:52;;;;;;;5.30;3.67;;;;;;;-145.69;71.05;71338.72;5073607;28;20194;-76
2022/05/09 09:10:26;;;;;;;7.53;4.20;;;;;;;-145.69;75.19;71277.03;5071489;28;20923;-76
2022/05/09 09:13:03;;;;;;;4.53;3.35;;;;;;;-145.69;67.32;71217.34;5073670;28;20278;-77
2022/05/09 09:15:39;;;;;;;4.97;3.45;;;;;;;-145.69;69.83;71231.28;5073431;28;20718;-77
2022/05/09 09:18:20;;;;;;;3.83;3.20;;;;;;;-145.69;70.73;71211.38;5072983;28;20229;-75
2022/05/09 09:20:59;;;;;;;7.10;3.55;;;;;;;-145.69;65.32;71187.50;5073069;28;20238;-76
2022/05/09 09:23:41;;;;;;;6.10;3.03;;;;;;;-145.69;61.38;71151.69;5073320;28;20228;-76
2022/05/09 09:26:20;;;;;;;7.43;3.42;;;;;;;-145.69;67.06;71267.09;5073359;28;20244;-76
2022/05/09 09:28:50;;;;;;;3.83;3.00;;;;;;;-145.69;65.93;71227.28;5073344;28;20292;-75
2022/05/09 09:31:22;;;;;;;4.10;3.22;;;;;;;-145.69;66.97;71203.41;5073333;28;20210;-77
2022/05/09 09:33:55;;;;;;;7.25;3.47;;;;;;;-145.69;66.78;71205.41;5072963;28;20239;-76
2022/05/09 09:36:23;;;;;;;4.40;3.55;;;;;;;-145.69;64.16;71147.69;5073262;28;20608;-76
2022/05/09 09:38:58;;;;;;;3.85;3.30;;;;;;;-145.69;64.43;71219.34;5073018;28;20206;-76
2022/05/09 09:41:29;;;;;;;7.07;2.95;;;;;;;-145.69;64.76;71187.50;5072820;28;20226;-77
2022/05/09 09:44:08;;;;;;;4.35;3.10;;;;;;;-145.69;63.67;71211.38;5073157;28;20202;-75
2022/05/09 09:46:35;;;;;;;7.43;3.15;;;;;;;-145.69;64.14;71175.56;5072970;28;20657;-76
2022/05/09 09:49:07;;;;;;;4.47;3.20;;;;;;;-145.69;63.76;71217.34;5072656;28;20309;-76
2022/05/09 09:51:45;;;;;;;7.10;3.47;;;;;;;-145.69;65.37;71207.38;5072898;28;20650;-76
2022/05/09 09:54:13;;;;;;;4.13;3.17;;;;;;;-145.69;62.14;71191.47;5073005;28;20206;-76
2022/05/09 09:56:42;;;;;;;3.15;2.80;;;;;;;-145.69;63.71;71235.25;5073159;28;20199;-76
2022/05/09 09:59:21;;;;;;;4.45;2.78;;;;;;;-145.69;63.21;71179.53;5072972;28;20195;-76
2022/05/09 10:02:02;;;;;;;4.18;2.85;;;;;;;-145.69;63.13;71169.59;5072808;28;20222;-76
2022/05/09 10:04:30;;;;;;;4.43;2.97;;;;;;;-145.69;63.46;71161.63;5072247;28;20281;-76
2022/05/09 10:07:00;;;;;;;6.68;3.22;;;;;;;-145.69;66.68;71231.28;5072468;28;20198;-78
2022/05/09 10:09:28;;;;;;;6.40;3.08;;;;;;;-145.69;64.14;71225.31;5073019;28;20240;-75
2022/05/09 10:12:15;;;;;;;5.78;3.35;;;;;;;-145.69;60.45;71163.63;5072714;28;20202;-75
2022/05/09 10:14:42;;;;;;;3.67;2.80;;;;;;;-145.69;65.66;71121.84;5075632;28;20284;-75
2022/05/09 10:17:28;;;;;;;4.15;3.10;;;;;;;-145.69;61.36;71064.13;5076970;28;20668;-76
2022/05/09 10:19:56;;;;;;;5.80;3.05;;;;;;;-145.69;61.52;71014.38;5056573;28;20230;-75
2022/05/09 10:25:14;;;;;;;4.85;2.88;;;;;;;-145.69;59.19;71032.28;5056605;28;20676;-76
2022/05/09 10:27:43;;;;;;;4.68;3.28;;;;;;;-145.69;57.30;71032.28;5056660;28;20195;-75
2022/05/09 10:30:31;;;;;;;4.32;3.20;;;;;;;-145.69;61.12;71092.00;5056604;28;20210;-76
2022/05/09 10:33:02;;;;;;;5.90;3.33;;;;;;;-145.69;61.06;71076.06;5060417;28;20199;-75
2022/05/09 10:35:33;;;;;;;7.13;3.35;;;;;;;-145.69;63.06;71070.09;5076340;28;20553;-75
2022/05/09 10:38:01;;;;;;;5.60;3.00;;;;;;;-145.69;61.07;71068.13;5076627;28;20207;-76
2022/05/09 10:40:32;;;;;;;5.53;3.03;;;;;;;-145.69;61.00;71062.13;5076303;28;20722;-75
2022/05/09 10:43:05;;;;;;;3.50;3.05;;;;;;;-145.69;58.81;71038.25;5075865;28;20715;-76
2022/05/09 10:45:36;;;;;;;6.47;3.20;;;;;;;-145.69;56.09;71072.09;5055936;28;20196;-75
2022/05/09 10:48:11;;;;;;;4.55;3.00;;;;;;;-145.69;58.78;71056.16;5069945;28;20294;-75
2022/05/09 10:50:43;;;;;;;5.80;3.25;;;;;;;-145.69;59.61;71042.25;5075941;28;20769;-75
2022/05/09 10:53:15;;;;;;;4.38;3.10;;;;;;;-145.69;56.74;71016.38;5076242;28;20264;-75
2022/05/09 10:55:47;;;;;;;4.03;3.00;;;;;;;-145.69;59.29;70992.50;5064140;28;20283;-77
2022/05/09 10:58:23;;;;;;;6.85;3.60;;;;;;;-145.69;58.53;70994.50;5068753;28;20260;-76
2022/05/09 11:00:56;;;;;;;5.47;3.40;;;;;;;-145.69;57.16;71008.41;5074175;28;20291;-76
2022/05/09 11:03:26;;;;;;;4.30;3.30;;;;;;;-145.69;63.64;71074.09;5074063;28;20226;-76
2022/05/09 11:06:06;;;;;;;5.22;3.25;;;;;;;-145.69;59.33;71070.09;5075549;28;20234;-75
2022/05/09 11:08:45;;;;;;;3.55;3.17;;;;;;;-145.69;56.62;71056.16;5075793;28;20233;-75
2022/05/09 11:11:25;;;;;;;4.15;3.30;;;;;;;-145.69;58.08;71048.22;5075373;28;20264;-76
2022/05/09 11:14:03;;;;;;;4.40;3.47;;;;;;;-145.69;56.52;71048.22;5074521;28;20260;-76
2022/05/09 11:16:41;;;;;;;4.60;3.03;;;;;;;-145.69;60.01;71036.28;5075393;28;20611;-75
2022/05/09 11:19:24;;;;;;;5.53;3.30;;;;;;;-145.69;57.44;71038.25;5073743;28;20236;-77
2022/05/09 11:22:02;;;;;;;4.93;3.60;;;;;;;-145.69;59.69;71006.44;5075389;28;20718;-78
2022/05/09 11:24:51;;;;;;;4.07;3.30;;;;;;;-145.69;55.87;70998.47;5075516;28;20267;-76
2022/05/09 11:27:27;;;;;;;4.70;3.28;;;;;;;-145.69;52.31;70978.56;5074687;28;20198;-79
2022/05/09 11:30:09;;;;;;;6.35;3.00;;;;;;;-145.69;57.20;70976.59;5075409;28;20268;-76